Time;durP1;ratioP1;P1;durP2;ratioP2;P2;SDS_P1;SDS_P2;PMS_P1;PMS_P2;Temp;Humidity;BMP_temperature;BMP_pressure;BME280_temperature;BME280_humidity;BME280_pressure;Samples;Min_cycle;Max_cycle;Signal;HPM_P1;HPM_P2
2021/10/03 00:02:21;;;;;;;8.70;7.43;;;;;;;;;;5071877;28;20084;-59
2021/10/03 00:04:48;;;;;;;10.03;7.93;;;;;;;;;;5072244;28;20021;-59
2021/10/03 00:07:19;;;;;;;9.50;7.30;;;;;;;;;;5068772;28;20171;-59
2021/10/03 00:09:46;;;;;;;10.07;7.33;;;;;;;;;;5066664;28;20044;-59
2021/10/03 00:12:13;;;;;;;9.27;7.23;;;;;;;;;;5066779;28;20634;-59
2021/10/03 00:14:40;;;;;;;9.17;6.13;;;;;;;;;;5066107;28;20039;-59
2021/10/03 00:17:07;;;;;;;8.47;5.87;;;;;;;;;;5068144;28;20024;-59
2021/10/03 00:19:34;;;;;;;7.83;5.93;;;;;;;;;;5071980;28;20037;-59
2021/10/03 00:22:01;;;;;;;8.17;6.33;;;;;;;;;;5071931;28;20031;-59
2021/10/03 00:24:30;;;;;;;9.53;5.97;;;;;;;;;;5071687;28;20025;-59
2021/10/03 00:26:57;;;;;;;9.50;6.83;;;;;;;;;;5071858;28;20058;-59
2021/10/03 00:29:24;;;;;;;14.17;7.17;;;;;;;;;;5069599;28;20021;-59
2021/10/03 00:31:52;;;;;;;7.63;5.60;;;;;;;;;;5066476;28;20471;-59
2021/10/03 00:34:19;;;;;;;9.27;6.50;;;;;;;;;;5066312;28;20373;-59
2021/10/03 00:36:46;;;;;;;11.83;7.93;;;;;;;;;;5066347;28;20024;-59
2021/10/03 00:39:14;;;;;;;10.97;6.40;;;;;;;;;;5067765;28;20414;-59
2021/10/03 00:41:40;;;;;;;9.20;6.60;;;;;;;;;;5071825;28;20017;-59
2021/10/03 00:44:07;;;;;;;10.33;5.83;;;;;;;;;;5074760;28;20412;-59
2021/10/03 00:46:34;;;;;;;9.67;5.57;;;;;;;;;;5075152;28;20487;-59
2021/10/03 00:49:01;;;;;;;8.20;6.30;;;;;;;;;;5075000;28;20032;-59
2021/10/03 00:51:28;;;;;;;10.17;6.27;;;;;;;;;;5073490;28;20094;-59
2021/10/03 00:53:55;;;;;;;12.63;7.50;;;;;;;;;;5070026;28;20016;-59
2021/10/03 00:56:21;;;;;;;10.67;6.87;;;;;;;;;;5069931;28;20043;-59
2021/10/03 00:58:48;;;;;;;9.40;6.83;;;;;;;;;;5070042;28;20059;-59
2021/10/03 01:01:16;;;;;;;8.47;6.23;;;;;;;;;;5070192;28;20054;-59
2021/10/03 01:03:42;;;;;;;11.03;6.33;;;;;;;;;;5074639;28;20490;-59
2021/10/03 01:06:09;;;;;;;15.20;6.43;;;;;;;;;;5075215;28;20024;-59
2021/10/03 01:08:37;;;;;;;10.57;5.47;;;;;;;;;;5074897;28;20033;-58
2021/10/03 01:11:04;;;;;;;13.90;6.00;;;;;;;;;;5075241;28;20027;-59
2021/10/03 01:13:30;;;;;;;9.07;6.13;;;;;;;;;;5073654;28;20033;-59
2021/10/03 01:15:57;;;;;;;9.53;6.10;;;;;;;;;;5069694;28;20483;-59
2021/10/03 01:18:25;;;;;;;12.00;6.97;;;;;;;;;;5069717;28;20103;-59
2021/10/03 01:20:52;;;;;;;11.83;6.23;;;;;;;;;;5069211;28;20048;-59
2021/10/03 01:23:19;;;;;;;7.87;5.60;;;;;;;;;;5069790;28;20050;-59
2021/10/03 01:25:48;;;;;;;10.63;5.70;;;;;;;;;;5074340;28;20032;-58
2021/10/03 01:28:16;;;;;;;8.00;5.70;;;;;;;;;;5074743;28;20036;-59
2021/10/03 01:30:45;;;;;;;9.27;5.40;;;;;;;;;;5075028;28;20033;-59
2021/10/03 01:33:11;;;;;;;8.87;5.73;;;;;;;;;;5074275;28;20021;-59
2021/10/03 01:35:38;;;;;;;7.60;5.67;;;;;;;;;;5073839;28;20479;-59
2021/10/03 01:38:07;;;;;;;7.57;6.10;;;;;;;;;;5069116;28;20025;-59
2021/10/03 01:40:34;;;;;;;9.13;5.30;;;;;;;;;;5069081;28;20028;-59
2021/10/03 01:43:01;;;;;;;7.60;6.10;;;;;;;;;;5068961;28;20036;-59
2021/10/03 01:45:28;;;;;;;8.27;6.33;;;;;;;;;;5068516;28;20024;-58
2021/10/03 01:48:02;;;;;;;9.20;5.43;;;;;;;;;;5068928;28;20043;-58
2021/10/03 01:50:29;;;;;;;11.30;6.03;;;;;;;;;;5073968;28;20086;-59
2021/10/03 01:52:56;;;;;;;9.03;6.47;;;;;;;;;;5074509;28;20024;-58
2021/10/03 01:55:23;;;;;;;14.83;6.40;;;;;;;;;;5074059;28;20024;-58
2021/10/03 01:57:50;;;;;;;11.03;6.60;;;;;;;;;;5073781;28;20059;-59
2021/10/03 02:00:17;;;;;;;9.13;5.43;;;;;;;;;;5068724;28;20036;-58
2021/10/03 02:02:45;;;;;;;7.83;5.43;;;;;;;;;;5068717;28;20225;-59
2021/10/03 02:05:12;;;;;;;12.63;6.03;;;;;;;;;;5068738;28;20028;-59
2021/10/03 02:07:39;;;;;;;9.73;6.13;;;;;;;;;;5067912;28;20484;-58
2021/10/03 02:10:06;;;;;;;15.70;5.63;;;;;;;;;;5073756;28;20034;-59
2021/10/03 02:12:33;;;;;;;9.53;5.30;;;;;;;;;;5073967;28;20063;-58
2021/10/03 02:14:59;;;;;;;15.70;6.57;;;;;;;;;;5073794;28;20025;-58
2021/10/03 02:17:30;;;;;;;14.47;5.63;;;;;;;;;;5073585;28;20442;-58
2021/10/03 02:19:57;;;;;;;13.33;5.93;;;;;;;;;;5073656;28;20039;-58
2021/10/03 02:22:25;;;;;;;8.93;6.27;;;;;;;;;;5068144;28;20090;-59
2021/10/03 02:24:56;;;;;;;7.27;5.23;;;;;;;;;;5068293;28;20021;-59
2021/10/03 02:27:25;;;;;;;8.13;5.93;;;;;;;;;;5068163;28;20086;-58
2021/10/03 02:29:52;;;;;;;10.87;6.27;;;;;;;;;;5067931;28;20101;-59
2021/10/03 02:32:19;;;;;;;14.37;6.37;;;;;;;;;;5073160;28;20498;-58
2021/10/03 02:34:46;;;;;;;9.07;5.87;;;;;;;;;;5073087;28;20037;-58
2021/10/03 02:37:12;;;;;;;10.33;8.07;;;;;;;;;;5073452;28;20012;-58
2021/10/03 02:39:39;;;;;;;10.63;6.50;;;;;;;;;;5072991;28;20035;-58
2021/10/03 02:42:06;;;;;;;9.00;5.97;;;;;;;;;;5073243;28;20482;-58
2021/10/03 02:44:33;;;;;;;10.97;6.43;;;;;;;;;;5067957;28;20039;-59
2021/10/03 02:47:00;;;;;;;15.30;7.07;;;;;;;;;;5067841;28;20056;-58
2021/10/03 02:49:27;;;;;;;11.80;6.63;;;;;;;;;;5067840;28;20025;-60
2021/10/03 02:51:54;;;;;;;9.70;6.87;;;;;;;;;;5067432;28;20383;-59
2021/10/03 02:54:20;;;;;;;13.77;7.07;;;;;;;;;;5071868;28;20020;-58
2021/10/03 02:56:47;;;;;;;12.33;6.83;;;;;;;;;;5072851;28;20415;-58
2021/10/03 02:59:14;;;;;;;11.60;7.77;;;;;;;;;;5073068;28;20036;-58
2021/10/03 03:01:41;;;;;;;11.13;7.20;;;;;;;;;;5072985;28;20050;-58
2021/10/03 03:04:08;;;;;;;11.40;6.53;;;;;;;;;;5072980;28;20021;-58
2021/10/03 03:06:34;;;;;;;11.63;7.00;;;;;;;;;;5067475;28;20026;-58
2021/10/03 03:09:01;;;;;;;9.30;6.17;;;;;;;;;;5067081;28;20047;-58
2021/10/03 03:11:28;;;;;;;12.33;6.03;;;;;;;;;;5067356;28;20094;-59
2021/10/03 03:13:55;;;;;;;10.97;6.17;;;;;;;;;;5067592;28;20025;-59
2021/10/03 03:16:21;;;;;;;9.73;6.30;;;;;;;;;;5070960;28;20495;-58
2021/10/03 03:18:48;;;;;;;10.10;6.87;;;;;;;;;;5072369;28;20099;-58
2021/10/03 03:21:15;;;;;;;9.53;6.37;;;;;;;;;;5072446;28;20107;-58
2021/10/03 03:23:42;;;;;;;11.67;7.10;;;;;;;;;;5072634;28;20062;-58
2021/10/03 03:26:09;;;;;;;14.00;7.10;;;;;;;;;;5072252;28;20073;-58
2021/10/03 03:28:36;;;;;;;9.30;5.57;;;;;;;;;;5067762;28;20067;-58
2021/10/03 03:31:03;;;;;;;7.47;5.00;;;;;;;;;;5066857;28;20035;-58
2021/10/03 03:33:29;;;;;;;8.20;6.13;;;;;;;;;;5067182;28;20028;-58
2021/10/03 03:35:56;;;;;;;8.73;6.20;;;;;;;;;;5067300;28;20024;-59
2021/10/03 03:38:23;;;;;;;11.83;5.67;;;;;;;;;;5070178;28;20040;-58
2021/10/03 03:40:50;;;;;;;9.47;5.90;;;;;;;;;;5072232;28;20025;-58
2021/10/03 03:43:17;;;;;;;10.20;6.87;;;;;;;;;;5071888;28;20025;-58
2021/10/03 03:45:44;;;;;;;9.53;6.23;;;;;;;;;;5071922;28;20021;-58
2021/10/03 03:48:11;;;;;;;12.43;8.47;;;;;;;;;;5071635;28;20082;-58
2021/10/03 03:50:40;;;;;;;11.47;8.00;;;;;;;;;;5069008;28;20031;-58
2021/10/03 03:53:06;;;;;;;14.30;9.70;;;;;;;;;;5067100;28;20036;-58
2021/10/03 03:55:33;;;;;;;16.83;8.73;;;;;;;;;;5067123;28;20095;-58
2021/10/03 03:58:00;;;;;;;12.87;9.10;;;;;;;;;;5066757;28;20467;-58
2021/10/03 04:00:27;;;;;;;28.33;14.00;;;;;;;;;;5069650;28;20067;-58
2021/10/03 04:02:53;;;;;;;21.80;13.20;;;;;;;;;;5071825;28;20020;-58
2021/10/03 04:05:20;;;;;;;15.80;10.40;;;;;;;;;;5071981;28;20465;-59
2021/10/03 04:07:47;;;;;;;20.20;11.87;;;;;;;;;;5072277;28;20032;-59
2021/10/03 04:10:14;;;;;;;13.47;9.77;;;;;;;;;;5072445;28;20472;-58
2021/10/03 04:12:40;;;;;;;14.50;9.83;;;;;;;;;;5068943;28;20031;-58
2021/10/03 04:15:08;;;;;;;18.30;12.20;;;;;;;;;;5067140;28;20060;-58
2021/10/03 04:17:35;;;;;;;22.03;14.20;;;;;;;;;;5067695;28;20099;-58
2021/10/03 04:20:02;;;;;;;20.47;14.37;;;;;;;;;;5071198;28;20166;-58
2021/10/03 04:22:29;;;;;;;20.63;13.97;;;;;;;;;;5073347;28;20453;-58
2021/10/03 04:24:55;;;;;;;16.20;11.53;;;;;;;;;;5075929;28;20082;-58
2021/10/03 04:27:22;;;;;;;19.27;12.57;;;;;;;;;;5076444;28;20403;-58
2021/10/03 04:29:49;;;;;;;22.37;12.60;;;;;;;;;;5076351;28;20460;-58
2021/10/03 04:32:16;;;;;;;18.43;12.03;;;;;;;;;;5075886;28;20035;-58
2021/10/03 04:34:43;;;;;;;18.77;12.23;;;;;;;;;;5072102;28;20036;-58
2021/10/03 04:37:10;;;;;;;14.70;11.07;;;;;;;;;;5069344;28;20020;-58
2021/10/03 04:39:37;;;;;;;15.23;10.90;;;;;;;;;;5069554;28;20499;-58
2021/10/03 04:42:04;;;;;;;20.50;10.40;;;;;;;;;;5069490;28;20731;-58
2021/10/03 04:44:31;;;;;;;15.97;9.67;;;;;;;;;;5071167;28;20024;-58
2021/10/03 04:46:58;;;;;;;15.10;9.40;;;;;;;;;;5074259;28;20029;-58
2021/10/03 04:49:25;;;;;;;12.93;8.37;;;;;;;;;;5073792;28;20024;-58
2021/10/03 04:51:52;;;;;;;10.07;7.20;;;;;;;;;;5073832;28;20016;-58
2021/10/03 04:54:18;;;;;;;13.27;8.20;;;;;;;;;;5074799;28;20029;-58
2021/10/03 04:56:45;;;;;;;10.17;6.90;;;;;;;;;;5072245;28;20024;-58
2021/10/03 04:59:12;;;;;;;15.47;8.07;;;;;;;;;;5068878;28;20032;-58
2021/10/03 05:01:39;;;;;;;12.77;7.60;;;;;;;;;;5069283;28;20494;-58
2021/10/03 05:04:05;;;;;;;12.33;7.70;;;;;;;;;;5069187;28;20059;-59
2021/10/03 05:06:32;;;;;;;12.37;8.17;;;;;;;;;;5070037;28;20075;-58
2021/10/03 05:08:59;;;;;;;11.43;7.50;;;;;;;;;;5074016;28;20074;-58
2021/10/03 05:11:26;;;;;;;9.67;7.07;;;;;;;;;;5074028;28;20542;-58
2021/10/03 05:13:52;;;;;;;10.30;6.57;;;;;;;;;;5073943;28;20020;-58
2021/10/03 05:16:19;;;;;;;9.27;6.83;;;;;;;;;;5074027;28;20027;-58
2021/10/03 05:18:46;;;;;;;15.20;7.97;;;;;;;;;;5072223;28;20021;-60
2021/10/03 05:21:13;;;;;;;11.07;7.37;;;;;;;;;;5068957;28;20031;-59
2021/10/03 05:23:40;;;;;;;8.67;6.50;;;;;;;;;;5068201;28;20085;-58
2021/10/03 05:26:06;;;;;;;11.40;6.27;;;;;;;;;;5068708;28;20103;-59
2021/10/03 05:28:33;;;;;;;13.17;7.73;;;;;;;;;;5069166;28;20032;-58
2021/10/03 05:31:00;;;;;;;12.93;6.80;;;;;;;;;;5073778;28;20021;-58
2021/10/03 05:33:27;;;;;;;11.30;7.23;;;;;;;;;;4992914;28;2303412;-58
2021/10/03 05:35:54;;;;;;;9.53;6.70;;;;;;;;;;5074517;28;20104;-58
2021/10/03 05:38:20;;;;;;;9.27;6.97;;;;;;;;;;5074552;28;20078;-58
2021/10/03 05:40:47;;;;;;;13.13;7.10;;;;;;;;;;5073250;28;20021;-58
2021/10/03 05:43:14;;;;;;;11.43;7.43;;;;;;;;;;5069514;28;20078;-58
2021/10/03 05:45:41;;;;;;;12.13;7.33;;;;;;;;;;5069698;28;20373;-58
2021/10/03 05:48:07;;;;;;;17.20;8.07;;;;;;;;;;5069279;28;20040;-58
2021/10/03 05:50:34;;;;;;;10.50;7.43;;;;;;;;;;5069993;28;20056;-58
2021/10/03 05:53:01;;;;;;;15.23;7.83;;;;;;;;;;5077994;28;20039;-58
2021/10/03 05:55:28;;;;;;;11.37;6.63;;;;;;;;;;5094670;28;20035;-58
2021/10/03 05:57:55;;;;;;;11.90;7.30;;;;;;;;;;5086738;28;20085;-58
2021/10/03 06:00:21;;;;;;;7.80;6.37;;;;;;;;;;5074334;28;20016;-59
2021/10/03 06:02:48;;;;;;;12.17;6.83;;;;;;;;;;5073675;28;20095;-59
2021/10/03 06:05:15;;;;;;;12.30;6.87;;;;;;;;;;5069234;28;20021;-58
2021/10/03 06:07:42;;;;;;;10.33;6.97;;;;;;;;;;5069047;28;20045;-60
2021/10/03 06:10:09;;;;;;;16.63;7.67;;;;;;;;;;5068893;28;20044;-59
2021/10/03 06:12:36;;;;;;;12.20;6.80;;;;;;;;;;5069158;28;20020;-58
2021/10/03 06:15:03;;;;;;;11.70;7.53;;;;;;;;;;5073884;28;20029;-59
2021/10/03 06:17:30;;;;;;;10.00;6.90;;;;;;;;;;5073519;28;20028;-59
2021/10/03 06:19:57;;;;;;;12.30;6.93;;;;;;;;;;5073777;28;20028;-59
2021/10/03 06:22:25;;;;;;;11.57;7.67;;;;;;;;;;5073872;28;20586;-59
2021/10/03 06:24:52;;;;;;;11.90;7.33;;;;;;;;;;5073540;28;20039;-58
2021/10/03 06:27:19;;;;;;;14.47;6.77;;;;;;;;;;5068662;28;20031;-59
2021/10/03 06:29:46;;;;;;;10.03;7.03;;;;;;;;;;5068257;28;20032;-58
2021/10/03 06:32:13;;;;;;;9.73;7.17;;;;;;;;;;5068507;28;20044;-60
2021/10/03 06:34:40;;;;;;;11.17;6.60;;;;;;;;;;5068022;28;20457;-58
2021/10/03 06:37:07;;;;;;;11.93;6.80;;;;;;;;;;5073142;28;20025;-58
2021/10/03 06:39:34;;;;;;;12.13;8.50;;;;;;;;;;5073130;28;20387;-58
2021/10/03 06:42:01;;;;;;;11.20;6.77;;;;;;;;;;5073066;28;20035;-58
2021/10/03 06:44:27;;;;;;;12.67;7.37;;;;;;;;;;5073436;28;20067;-58
2021/10/03 06:46:54;;;;;;;10.60;7.50;;;;;;;;;;5072865;28;20029;-58
2021/10/03 06:49:21;;;;;;;10.40;7.43;;;;;;;;;;5068086;28;20066;-58
2021/10/03 06:51:48;;;;;;;13.13;9.03;;;;;;;;;;5068050;28;20039;-58
2021/10/03 06:54:15;;;;;;;11.43;8.13;;;;;;;;;;5068161;28;20541;-58
2021/10/03 06:56:42;;;;;;;12.67;7.63;;;;;;;;;;5067841;28;20085;-58
2021/10/03 06:59:08;;;;;;;8.70;6.77;;;;;;;;;;5072456;28;20019;-58
2021/10/03 07:01:36;;;;;;;9.07;6.53;;;;;;;;;;5073079;28;20025;-58
2021/10/03 07:04:03;;;;;;;13.87;6.90;;;;;;;;;;5072954;28;20529;-58
2021/10/03 07:06:30;;;;;;;11.03;8.17;;;;;;;;;;5072512;28;20412;-58
2021/10/03 07:08:56;;;;;;;12.00;7.63;;;;;;;;;;5072903;28;20476;-58
2021/10/03 07:11:23;;;;;;;10.10;6.87;;;;;;;;;;5068067;28;20025;-58
2021/10/03 07:13:50;;;;;;;9.30;6.80;;;;;;;;;;5067911;28;20483;-59
2021/10/03 07:16:17;;;;;;;10.20;7.07;;;;;;;;;;5067594;28;20043;-58
2021/10/03 07:18:44;;;;;;;9.23;7.00;;;;;;;;;;5067279;28;20028;-58
2021/10/03 07:21:11;;;;;;;8.80;6.63;;;;;;;;;;5071235;28;20023;-58
2021/10/03 07:23:38;;;;;;;9.10;6.43;;;;;;;;;;5072744;28;20471;-58
2021/10/03 07:26:07;;;;;;;12.27;8.70;;;;;;;;;;5072536;28;20123;-59
2021/10/03 07:28:34;;;;;;;12.67;8.60;;;;;;;;;;5072437;28;20396;-58
2021/10/03 07:31:01;;;;;;;11.53;7.97;;;;;;;;;;5072001;28;20040;-58
2021/10/03 07:33:28;;;;;;;17.27;9.23;;;;;;;;;;5067991;28;20071;-58
2021/10/03 07:35:55;;;;;;;11.67;8.07;;;;;;;;;;5067531;28;20032;-58
2021/10/03 07:38:22;;;;;;;13.73;7.70;;;;;;;;;;5067464;28;20441;-58
2021/10/03 07:40:49;;;;;;;12.17;9.67;;;;;;;;;;5067685;28;20058;-58
2021/10/03 07:43:16;;;;;;;12.13;8.07;;;;;;;;;;5070540;28;20404;-58
2021/10/03 07:45:43;;;;;;;15.20;8.73;;;;;;;;;;5072582;28;20029;-58
2021/10/03 07:48:09;;;;;;;11.37;7.93;;;;;;;;;;5072280;28;20040;-58
2021/10/03 07:50:36;;;;;;;12.47;8.60;;;;;;;;;;5072016;28;20111;-59
2021/10/03 07:53:03;;;;;;;13.37;8.83;;;;;;;;;;5072290;28;20498;-58
2021/10/03 07:55:30;;;;;;;11.07;8.47;;;;;;;;;;5068100;28;20383;-59
2021/10/03 07:58:01;;;;;;;12.77;9.17;;;;;;;;;;5067373;28;20100;-58
2021/10/03 08:00:27;;;;;;;13.60;9.40;;;;;;;;;;5067118;28;20027;-58
2021/10/03 08:02:54;;;;;;;13.10;9.47;;;;;;;;;;5067358;28;20033;-58
2021/10/03 08:05:21;;;;;;;13.70;9.67;;;;;;;;;;5070307;28;20036;-58
2021/10/03 08:07:48;;;;;;;17.67;9.40;;;;;;;;;;5071905;28;20441;-58
2021/10/03 08:10:15;;;;;;;10.93;8.57;;;;;;;;;;5072386;28;20483;-58
2021/10/03 08:12:42;;;;;;;13.43;8.40;;;;;;;;;;5072111;28;20387;-58
2021/10/03 08:15:09;;;;;;;13.33;8.13;;;;;;;;;;5072418;28;20043;-58
2021/10/03 08:17:37;;;;;;;11.50;8.47;;;;;;;;;;5068035;28;20031;-58
2021/10/03 08:20:04;;;;;;;10.23;7.17;;;;;;;;;;5066797;28;20061;-58
2021/10/03 08:22:30;;;;;;;10.87;7.33;;;;;;;;;;5067036;28;20361;-58
2021/10/03 08:24:57;;;;;;;12.53;7.67;;;;;;;;;;5067085;28;20028;-58
2021/10/03 08:27:26;;;;;;;11.60;7.93;;;;;;;;;;5070090;28;20016;-59
2021/10/03 08:29:52;;;;;;;13.30;8.70;;;;;;;;;;5072031;28;20021;-58
2021/10/03 08:32:19;;;;;;;11.43;8.70;;;;;;;;;;5071937;28;20483;-58
2021/10/03 08:34:46;;;;;;;14.07;9.00;;;;;;;;;;5071956;28;20395;-58
2021/10/03 08:37:13;;;;;;;12.80;9.00;;;;;;;;;;5071279;28;20093;-58
2021/10/03 08:39:39;;;;;;;9.80;7.60;;;;;;;;;;5068535;28;20023;-59
2021/10/03 08:42:07;;;;;;;10.40;8.23;;;;;;;;;;5067063;28;20107;-58
2021/10/03 08:44:34;;;;;;;12.93;7.93;;;;;;;;;;5067250;28;20037;-59
2021/10/03 08:47:02;;;;;;;13.00;8.53;;;;;;;;;;5066936;28;20029;-58
2021/10/03 08:49:28;;;;;;;10.57;7.63;;;;;;;;;;5069307;28;20051;-58
2021/10/03 08:51:55;;;;;;;10.97;8.47;;;;;;;;;;5071292;28;20047;-58
2021/10/03 08:54:22;;;;;;;12.57;9.27;;;;;;;;;;5071668;28;20020;-58
2021/10/03 08:56:49;;;;;;;10.63;7.93;;;;;;;;;;5071740;28;20410;-58
2021/10/03 08:59:16;;;;;;;10.80;8.10;;;;;;;;;;5071920;28;20017;-58
2021/10/03 09:01:53;;;;;;;9.57;7.70;;;;;;;;;;5068450;28;20033;-58
2021/10/03 09:04:28;;;;;;;14.23;8.27;;;;;;;;;;5068556;28;20039;-58
2021/10/03 09:07:20;;;;;;;14.25;6.95;;;;;;;;;;5070052;28;20424;-58
2021/10/03 09:09:50;;;;;;;12.53;8.20;;;;;;;;;;5066311;28;20052;-58
2021/10/03 09:12:23;;;;;;;13.47;7.97;;;;;;;;;;5074269;28;20027;-58
2021/10/03 09:14:50;;;;;;;12.93;9.07;;;;;;;;;;5074673;28;20032;-59
2021/10/03 09:17:18;;;;;;;15.60;9.60;;;;;;;;;;5075215;28;20028;-58
2021/10/03 09:20:02;;;;;;;12.80;9.27;;;;;;;;;;5074922;28;20029;-58
2021/10/03 09:22:29;;;;;;;13.15;9.13;;;;;;;;;;5075157;28;20032;-58
2021/10/03 09:24:56;;;;;;;13.97;8.63;;;;;;;;;;5069216;28;20035;-58
2021/10/03 09:27:23;;;;;;;13.80;7.87;;;;;;;;;;5069921;28;20028;-58
2021/10/03 09:29:49;;;;;;;12.83;8.53;;;;;;;;;;5069699;28;20466;-58
2021/10/03 09:32:21;;;;;;;10.37;7.50;;;;;;;;;;5069866;28;20028;-58
2021/10/03 09:34:49;;;;;;;13.60;7.77;;;;;;;;;;5073924;28;20044;-58
2021/10/03 09:37:19;;;;;;;10.93;7.73;;;;;;;;;;5074645;28;20102;-58
2021/10/03 09:39:49;;;;;;;10.47;6.80;;;;;;;;;;5073822;28;20024;-58
2021/10/03 09:42:16;;;;;;;9.73;7.30;;;;;;;;;;5074332;28;20024;-59
2021/10/03 09:45:09;;;;;;;10.90;7.70;;;;;;;;;;5074571;28;20028;-58
2021/10/03 09:47:37;;;;;;;11.67;8.67;;;;;;;;;;5031267;28;20090;-58
2021/10/03 09:50:06;;;;;;;12.27;7.80;;;;;;;;;;5068867;28;20028;-58
2021/10/03 09:52:33;;;;;;;8.93;6.73;;;;;;;;;;5069620;28;20033;-58
2021/10/03 09:55:02;;;;;;;12.77;7.80;;;;;;;;;;5069857;28;20480;-58
2021/10/03 09:57:29;;;;;;;12.17;7.67;;;;;;;;;;5074442;28;20027;-59
2021/10/03 09:59:57;;;;;;;10.03;7.23;;;;;;;;;;5074426;28;20039;-57
2021/10/03 10:02:24;;;;;;;9.63;7.07;;;;;;;;;;5073935;28;20027;-58
2021/10/03 10:04:51;;;;;;;10.60;7.83;;;;;;;;;;5074279;28;20020;-58
2021/10/03 10:07:18;;;;;;;9.60;7.40;;;;;;;;;;5073060;28;20020;-58
2021/10/03 10:09:46;;;;;;;13.17;8.43;;;;;;;;;;5069153;28;20033;-58
2021/10/03 10:12:14;;;;;;;10.37;7.30;;;;;;;;;;5069732;28;20029;-58
2021/10/03 10:14:46;;;;;;;9.40;7.13;;;;;;;;;;5068135;28;20032;-58
2021/10/03 10:17:31;;;;;;;9.87;7.37;;;;;;;;;;5068341;28;20024;-57
2021/10/03 10:20:21;;;;;;;8.53;6.33;;;;;;;;;;5073700;28;20033;-58
2021/10/03 10:22:56;;;;;;;8.23;6.40;;;;;;;;;;5073318;28;20357;-57
2021/10/03 10:25:38;;;;;;;10.87;7.67;;;;;;;;;;5073458;28;20037;-57
2021/10/03 10:28:07;;;;;;;9.53;6.73;;;;;;;;;;5073889;28;20037;-58
2021/10/03 10:30:34;;;;;;;9.37;6.47;;;;;;;;;;5070543;28;20033;-58
2021/10/03 10:33:04;;;;;;;10.53;7.03;;;;;;;;;;5068524;28;20078;-58
2021/10/03 10:35:32;;;;;;;11.03;7.20;;;;;;;;;;5068342;28;20044;-58
2021/10/03 10:38:00;;;;;;;11.03;7.20;;;;;;;;;;5068212;28;20036;-58
2021/10/03 10:40:32;;;;;;;8.83;7.00;;;;;;;;;;5070883;28;20454;-59
2021/10/03 10:43:05;;;;;;;13.70;6.87;;;;;;;;;;5073554;28;20067;-58
2021/10/03 10:45:33;;;;;;;8.40;6.20;;;;;;;;;;5073432;28;20392;-58
2021/10/03 10:48:09;;;;;;;13.20;6.83;;;;;;;;;;5073453;28;20040;-57
2021/10/03 10:50:42;;;;;;;9.97;8.20;;;;;;;;;;5072907;28;20032;-58
2021/10/03 10:53:23;;;;;;;9.77;7.20;;;;;;;;;;5069664;28;20024;-58
2021/10/03 10:56:02;;;;;;;13.50;7.50;;;;;;;;;;5067918;28;20074;-58
2021/10/03 10:58:29;;;;;;;11.60;6.47;;;;;;;;;;5068345;28;20095;-57
2021/10/03 11:01:07;;;;;;;9.77;5.50;;;;;;;;;;5068053;28;20025;-58
2021/10/03 11:03:43;;;;;;;11.50;6.83;;;;;;;;;;5072222;28;20107;-58
2021/10/03 11:06:12;;;;;;;8.80;6.03;;;;;;;;;;5072830;28;20020;-59
2021/10/03 11:09:01;;;;;;;10.30;7.07;;;;;;;;;;5072977;28;20487;-58
2021/10/03 11:11:28;;;;;;;8.57;6.27;;;;;;;;;;5073019;28;20614;-58
2021/10/03 11:13:55;;;;;;;11.50;5.77;;;;;;;;;;5071724;28;20039;-58
2021/10/03 11:16:27;;;;;;;10.67;6.53;;;;;;;;;;5067444;28;20074;-59
2021/10/03 11:18:54;;;;;;;8.83;6.50;;;;;;;;;;5068018;28;20024;-57
2021/10/03 11:21:27;;;;;;;11.07;6.30;;;;;;;;;;5067889;28;20020;-58
2021/10/03 11:23:55;;;;;;;9.17;6.10;;;;;;;;;;5068231;28;20020;-58
2021/10/03 11:26:23;;;;;;;14.90;6.93;;;;;;;;;;5072154;28;20020;-58
2021/10/03 11:28:51;;;;;;;8.77;6.63;;;;;;;;;;5072307;28;20036;-57
2021/10/03 11:31:38;;;;;;;9.23;6.60;;;;;;;;;;5072653;28;20031;-58
2021/10/03 11:34:06;;;;;;;7.97;5.63;;;;;;;;;;5072343;28;20024;-58
2021/10/03 11:36:33;;;;;;;9.07;5.90;;;;;;;;;;5070675;28;20020;-58
2021/10/03 11:39:00;;;;;;;10.67;6.43;;;;;;;;;;5066892;28;20098;-57
2021/10/03 11:41:27;;;;;;;14.60;6.93;;;;;;;;;;5067307;28;20067;-58
2021/10/03 11:43:54;;;;;;;10.17;7.20;;;;;;;;;;5067775;28;20077;-57
2021/10/03 11:46:21;;;;;;;8.97;6.33;;;;;;;;;;5068939;28;20052;-58
2021/10/03 11:48:53;;;;;;;9.37;6.40;;;;;;;;;;5072369;28;20115;-58
2021/10/03 11:51:20;;;;;;;9.87;6.27;;;;;;;;;;5071968;28;20487;-58
2021/10/03 11:53:50;;;;;;;9.27;6.50;;;;;;;;;;5071893;28;20020;-57
2021/10/03 11:56:19;;;;;;;8.40;6.20;;;;;;;;;;5072019;28;20020;-57
2021/10/03 11:58:48;;;;;;;10.27;6.23;;;;;;;;;;5070270;28;20029;-58
2021/10/03 12:01:15;;;;;;;8.13;5.80;;;;;;;;;;5067235;28;20040;-57
2021/10/03 12:03:49;;;;;;;12.43;5.87;;;;;;;;;;5067332;28;20031;-58
2021/10/03 12:06:17;;;;;;;7.67;5.80;;;;;;;;;;5066646;28;20033;-57
2021/10/03 12:08:46;;;;;;;9.73;5.77;;;;;;;;;;5068760;28;20487;-57
2021/10/03 12:11:13;;;;;;;8.03;6.20;;;;;;;;;;5071894;28;20044;-58
2021/10/03 12:13:40;;;;;;;8.50;6.27;;;;;;;;;;5072394;28;20087;-57
2021/10/03 12:16:15;;;;;;;9.80;6.13;;;;;;;;;;5071933;28;20032;-57
2021/10/03 12:18:44;;;;;;;8.00;5.30;;;;;;;;;;5071504;28;20029;-57
2021/10/03 12:21:16;;;;;;;7.03;4.83;;;;;;;;;;5069462;28;20036;-58
2021/10/03 12:23:43;;;;;;;8.23;5.27;;;;;;;;;;5067106;28;20035;-58
2021/10/03 12:26:11;;;;;;;8.63;5.73;;;;;;;;;;5067031;28;20410;-57
2021/10/03 12:28:54;;;;;;;7.57;5.43;;;;;;;;;;5066611;28;20036;-57
2021/10/03 12:31:39;;;;;;;8.10;5.30;;;;;;;;;;5069405;28;20479;-58
2021/10/03 12:34:08;;;;;;;8.77;5.63;;;;;;;;;;5071424;28;20383;-58
2021/10/03 12:36:35;;;;;;;7.60;5.07;;;;;;;;;;5071952;28;20376;-57
2021/10/03 12:39:02;;;;;;;8.77;5.23;;;;;;;;;;5073304;28;20028;-57
2021/10/03 12:41:29;;;;;;;14.80;5.73;;;;;;;;;;5075348;28;20021;-58
2021/10/03 12:43:55;;;;;;;9.07;5.40;;;;;;;;;;5071817;28;20033;-57
2021/10/03 12:46:23;;;;;;;13.80;5.77;;;;;;;;;;5070675;28;20021;-57
2021/10/03 12:48:49;;;;;;;7.87;5.57;;;;;;;;;;5070498;28;20452;-57
2021/10/03 13:03:38;;;;;;;26.60;8.43;;;;;;;;;;5079732;27;2211381;-60
2021/10/03 13:06:09;;;;;;;11.93;6.50;;;;;;;;;;5125473;28;20027;-58
2021/10/03 13:08:36;;;;;;;10.97;6.43;;;;;;;;;;5124994;28;20027;-58
2021/10/03 13:11:05;;;;;;;10.73;6.60;;;;;;;;;;5125385;28;20438;-59
2021/10/03 13:13:32;;;;;;;11.07;6.63;;;;;;;;;;5125875;28;20473;-58
2021/10/03 13:16:01;;;;;;;16.27;7.63;;;;;;;;;;5110116;28;20024;-58
2021/10/03 13:18:28;;;;;;;14.83;7.23;;;;;;;;;;5109990;28;20027;-58
2021/10/03 13:20:55;;;;;;;9.03;6.17;;;;;;;;;;5109828;28;20031;-58
2021/10/03 13:23:23;;;;;;;9.43;6.43;;;;;;;;;;5109356;28;20390;-58
2021/10/03 13:25:50;;;;;;;8.47;6.00;;;;;;;;;;5126951;28;20039;-58
2021/10/03 13:28:17;;;;;;;9.03;6.63;;;;;;;;;;5125176;28;20091;-60
2021/10/03 13:30:43;;;;;;;6.93;5.17;;;;;;;;;;5125070;28;20020;-59
2021/10/03 13:33:10;;;;;;;9.33;6.00;;;;;;;;;;5116120;28;20088;-59
2021/10/03 13:35:41;;;;;;;7.23;5.70;;;;;;;;;;5104727;28;20028;-59
2021/10/03 13:38:09;;;;;;;9.70;6.13;;;;;;;;;;5109384;28;20081;-59
2021/10/03 13:40:36;;;;;;;6.90;5.43;;;;;;;;;;5109301;28;20077;-59
2021/10/03 13:43:04;;;;;;;7.10;4.90;;;;;;;;;;5115923;28;20031;-58
2021/10/03 13:45:32;;;;;;;8.97;5.27;;;;;;;;;;5130009;28;20530;-59
2021/10/03 13:47:58;;;;;;;6.03;4.30;;;;;;;;;;5129279;28;20030;-59
2021/10/03 13:50:26;;;;;;;8.20;5.67;;;;;;;;;;5124749;28;20024;-59
2021/10/03 13:52:52;;;;;;;9.10;5.63;;;;;;;;;;5119257;28;20030;-59
2021/10/03 13:55:19;;;;;;;6.50;4.83;;;;;;;;;;5103732;28;20038;-58
2021/10/03 13:57:46;;;;;;;23.47;11.00;;;;;;;;;;5104181;28;20201;-58
2021/10/03 14:00:13;;;;;;;18.90;10.43;;;;;;;;;;5109014;28;20056;-59
2021/10/03 14:02:44;;;;;;;15.50;8.57;;;;;;;;;;5108989;28;20081;-59
2021/10/03 14:05:11;;;;;;;13.03;7.07;;;;;;;;;;5108233;28;20056;-59
2021/10/03 14:07:39;;;;;;;9.27;5.97;;;;;;;;;;5095243;28;20104;-59
2021/10/03 14:10:07;;;;;;;9.03;6.30;;;;;;;;;;5094964;28;20024;-59
2021/10/03 14:12:34;;;;;;;10.33;6.70;;;;;;;;;;5090196;28;20382;-59
2021/10/03 14:15:01;;;;;;;8.70;6.20;;;;;;;;;;5094883;28;20035;-59
2021/10/03 14:17:28;;;;;;;6.83;4.67;;;;;;;;;;5110326;28;20034;-59
2021/10/03 14:19:55;;;;;;;7.63;4.67;;;;;;;;;;5105250;28;20470;-59
2021/10/03 14:22:21;;;;;;;5.37;4.00;;;;;;;;;;5094890;28;20020;-60
2021/10/03 14:24:48;;;;;;;8.60;4.70;;;;;;;;;;5095070;28;20088;-59
2021/10/03 14:27:15;;;;;;;7.13;5.33;;;;;;;;;;5094662;28;20020;-59
2021/10/03 14:29:43;;;;;;;6.73;5.27;;;;;;;;;;5095954;28;20028;-59
2021/10/03 14:32:09;;;;;;;6.70;4.53;;;;;;;;;;5094853;28;20667;-59
2021/10/03 14:34:36;;;;;;;7.07;4.80;;;;;;;;;;5091838;28;20031;-59
2021/10/03 14:37:04;;;;;;;6.60;4.60;;;;;;;;;;5110279;28;20051;-59
2021/10/03 14:39:31;;;;;;;8.20;4.63;;;;;;;;;;5109946;28;20386;-60
2021/10/03 14:41:58;;;;;;;6.37;4.50;;;;;;;;;;5110068;28;20461;-59
2021/10/03 14:44:25;;;;;;;6.20;4.30;;;;;;;;;;5113725;28;20492;-60
2021/10/03 14:46:51;;;;;;;6.00;4.70;;;;;;;;;;5114615;28;20119;-59
2021/10/03 14:49:18;;;;;;;5.33;4.33;;;;;;;;;;5115035;28;20067;-59
2021/10/03 14:51:45;;;;;;;6.90;4.47;;;;;;;;;;5114639;28;20504;-60